createdAt,value
2023-02-19T00:03:03.012Z,4.00
2023-02-19T00:09:23.900Z,4.30
2023-02-19T00:12:52.503Z,3.90
2023-02-19T00:16:02.692Z,3.10
2023-02-19T00:19:42.887Z,3.20
2023-02-19T00:23:01.073Z,2.90
2023-02-19T00:26:37.768Z,3.00
2023-02-19T00:29:58.364Z,2.50
2023-02-19T00:33:29.021Z,2.80
2023-02-19T00:36:54.992Z,2.90
2023-02-19T00:39:53.688Z,4.40
2023-02-19T00:43:05.981Z,3.40
2023-02-19T00:46:53.354Z,2.60
2023-02-19T00:50:20.594Z,2.50
2023-02-19T00:52:53.327Z,2.60
2023-02-19T00:56:13.155Z,2.70
2023-02-19T00:59:05.202Z,2.30
2023-02-19T01:02:34.239Z,2.40
2023-02-19T01:05:21.232Z,2.80
2023-02-19T01:08:33.328Z,2.40
2023-02-19T01:11:42.324Z,3.20
2023-02-19T01:14:54.821Z,2.10
2023-02-19T01:17:49.699Z,2.30
2023-02-19T01:20:19.144Z,2.00
2023-02-19T01:23:22.289Z,2.50
2023-02-19T01:26:43.970Z,2.40
2023-02-19T01:30:31.362Z,2.50
2023-02-19T01:33:59.599Z,1.90
2023-02-19T01:37:11.180Z,1.80
2023-02-19T01:40:49.499Z,2.00
2023-02-19T01:44:18.691Z,2.20
2023-02-19T01:47:09.448Z,1.90
2023-02-19T01:50:15.993Z,2.40
2023-02-19T01:53:43.087Z,2.10
2023-02-19T01:57:23.232Z,1.80
2023-02-19T02:01:11.168Z,2.60
2023-02-19T02:04:48.607Z,2.10
2023-02-19T02:08:34.291Z,1.90
2023-02-19T02:11:55.811Z,2.20
2023-02-19T02:15:21.685Z,2.70
2023-02-19T02:19:01.708Z,2.50
2023-02-19T02:22:23.247Z,2.80
2023-02-19T02:26:00.246Z,2.80
2023-02-19T02:29:15.360Z,2.80
2023-02-19T02:32:47.761Z,2.50
2023-02-19T02:36:05.766Z,2.80
2023-02-19T02:39:48.582Z,3.30
2023-02-19T02:43:16.072Z,2.80
2023-02-19T02:46:37.888Z,3.10
2023-02-19T02:49:58.291Z,2.50
2023-02-19T02:53:13.357Z,3.20
2023-02-19T02:56:50.525Z,3.20
2023-02-19T03:00:07.436Z,3.60
2023-02-19T03:03:25.963Z,3.00
2023-02-19T03:06:46.203Z,2.80
2023-02-19T03:10:07.255Z,3.20
2023-02-19T03:13:52.984Z,3.10
2023-02-19T03:17:14.136Z,4.40
2023-02-19T03:20:43.909Z,2.50
2023-02-19T03:24:07.307Z,2.20
2023-02-19T03:27:54.968Z,2.50
2023-02-19T03:31:13.301Z,2.40
2023-02-19T03:34:53.290Z,2.40
2023-02-19T03:38:32.368Z,2.40
2023-02-19T03:41:32.535Z,2.20
2023-02-19T03:45:38.379Z,2.40
2023-02-19T03:49:07.666Z,2.40
2023-02-19T03:52:40.573Z,2.00
2023-02-19T03:56:31.101Z,2.30
2023-02-19T04:00:07.431Z,2.30
2023-02-19T04:04:00.398Z,2.70
2023-02-19T04:07:47.724Z,2.10
2023-02-19T04:11:26.657Z,1.90
2023-02-19T04:15:13.065Z,2.60
2023-02-19T04:18:42.400Z,3.10
2023-02-19T04:21:59.770Z,2.20
2023-02-19T04:25:22.209Z,2.70
2023-02-19T04:29:09.567Z,1.90
2023-02-19T04:32:34.481Z,2.40
2023-02-19T04:35:57.092Z,2.50
2023-02-19T04:39:21.385Z,2.40
2023-02-19T04:43:08.750Z,2.50
2023-02-19T04:46:40.753Z,2.70
2023-02-19T04:50:20.030Z,2.40
2023-02-19T04:54:07.373Z,2.40
2023-02-19T04:57:35.427Z,2.20
2023-02-19T05:01:02.847Z,2.70
2023-02-19T05:04:32.562Z,2.30
2023-02-19T05:07:59.654Z,2.60
2023-02-19T05:11:46.715Z,3.00
2023-02-19T05:15:12.954Z,2.50
2023-02-19T05:18:34.113Z,2.80
2023-02-19T05:22:20.353Z,3.00
2023-02-19T05:25:44.187Z,2.60
2023-02-19T05:28:57.249Z,3.00
2023-02-19T05:31:56.701Z,2.80
2023-02-19T05:35:07.755Z,3.00
2023-02-19T05:38:14.919Z,3.20
2023-02-19T05:41:45.922Z,3.70
2023-02-19T05:44:42.906Z,3.60
2023-02-19T05:47:44.244Z,3.30
2023-02-19T05:50:56.738Z,3.60
2023-02-19T05:53:43.752Z,3.80
2023-02-19T05:57:07.947Z,3.40
2023-02-19T06:00:46.245Z,3.60
2023-02-19T06:03:39.777Z,3.50
2023-02-19T06:07:07.057Z,4.30
2023-02-19T06:10:23.590Z,4.20
2023-02-19T06:13:53.911Z,3.60
2023-02-19T06:17:41.369Z,3.70
2023-02-19T06:21:23.245Z,4.90
2023-02-19T06:25:06.458Z,3.70
2023-02-19T06:28:26.263Z,4.30
2023-02-19T06:32:03.723Z,3.70
2023-02-19T06:35:24.652Z,4.60
2023-02-19T06:38:27.502Z,4.60
2023-02-19T06:47:52.638Z,4.20
2023-02-19T06:51:21.893Z,4.50
2023-02-19T06:54:44.467Z,3.50
2023-02-19T06:58:01.545Z,4.70
2023-02-19T07:01:05.995Z,4.10
2023-02-19T07:04:37.990Z,3.50
2023-02-19T07:07:55.549Z,4.00
2023-02-19T07:11:15.049Z,4.30
2023-02-19T07:14:25.481Z,3.90
2023-02-19T07:17:29.382Z,4.00
2023-02-19T07:20:57.549Z,3.90
2023-02-19T07:24:05.919Z,4.00
2023-02-19T07:26:57.888Z,4.30
2023-02-19T07:30:06.138Z,4.10
2023-02-19T07:33:24.735Z,3.90
2023-02-19T07:36:26.689Z,4.10
2023-02-19T07:40:03.986Z,4.50
2023-02-19T07:43:42.215Z,3.50
2023-02-19T07:47:19.374Z,3.60
2023-02-19T07:50:46.668Z,3.60
2023-02-19T07:54:10.729Z,4.40
2023-02-19T07:57:20.337Z,3.70
2023-02-19T08:00:33.227Z,3.50
2023-02-19T08:03:50.583Z,4.30
2023-02-19T08:07:10.987Z,4.00
2023-02-19T08:09:40.649Z,4.30
2023-02-19T08:13:40.197Z,4.00
2023-02-19T08:17:00.958Z,4.20
2023-02-19T08:20:38.520Z,3.10
2023-02-19T08:23:51.016Z,4.20
2023-02-19T08:26:42.857Z,4.50
2023-02-19T08:29:39.816Z,4.00
2023-02-19T08:33:09.575Z,3.80
2023-02-19T08:36:34.955Z,4.10
2023-02-19T08:40:02.549Z,3.90
2023-02-19T08:43:32.460Z,3.10
2023-02-19T08:46:53.359Z,3.70
2023-02-19T08:50:12.364Z,4.90
2023-02-19T08:53:50.802Z,4.10
2023-02-19T08:56:46.209Z,4.60
2023-02-19T09:00:13.479Z,4.20
2023-02-19T09:04:00.897Z,4.40
2023-02-19T09:06:39.981Z,4.80
2023-02-19T09:09:52.278Z,5.40
2023-02-19T09:13:12.097Z,5.10
2023-02-19T09:16:11.092Z,4.90
2023-02-19T09:19:41.621Z,4.00
2023-02-19T09:22:34.330Z,4.30
2023-02-19T09:25:27.451Z,4.60
2023-02-19T09:28:34.689Z,5.90
2023-02-19T09:31:37.661Z,4.20
2023-02-19T09:34:55.007Z,3.80
2023-02-19T09:37:45.966Z,4.30
2023-02-19T09:41:07.118Z,4.40
2023-02-19T09:44:04.204Z,4.00
2023-02-19T09:47:20.736Z,4.80
2023-02-19T09:50:25.292Z,5.30
2023-02-19T09:54:05.090Z,4.60
2023-02-19T09:57:22.482Z,5.40
2023-02-19T10:00:40.813Z,4.30
2023-02-19T10:04:28.169Z,4.90
2023-02-19T10:07:44.037Z,3.60
2023-02-19T10:11:13.950Z,4.40
2023-02-19T10:14:24.917Z,4.40
2023-02-19T10:18:03.460Z,3.40
2023-02-19T10:21:21.618Z,4.70
2023-02-19T10:24:59.839Z,4.50
2023-02-19T10:28:17.211Z,3.40
2023-02-19T10:31:47.627Z,2.70
2023-02-19T10:35:25.709Z,3.00
2023-02-19T10:38:54.870Z,3.50
2023-02-19T10:42:10.709Z,2.90
2023-02-19T10:45:40.949Z,3.10
2023-02-19T10:49:04.877Z,2.00
2023-02-19T10:52:31.981Z,3.30
2023-02-19T10:55:45.872Z,3.10
2023-02-19T10:59:14.737Z,2.70
2023-02-19T11:02:57.584Z,2.90
2023-02-19T11:06:08.061Z,2.90
2023-02-19T11:09:17.726Z,2.80
2023-02-19T11:12:41.439Z,3.30
2023-02-19T11:16:01.157Z,2.80
2023-02-19T11:19:38.496Z,2.60
2023-02-19T11:23:20.176Z,2.60
2023-02-19T11:26:40.190Z,3.00
2023-02-19T11:29:55.399Z,2.40
2023-02-19T11:32:58.262Z,2.10
2023-02-19T11:36:30.286Z,2.40
2023-02-19T11:39:49.968Z,2.70
2023-02-19T11:43:15.639Z,2.40
2023-02-19T11:46:57.314Z,2.80
2023-02-19T11:50:16.729Z,2.40
2023-02-19T11:53:33.412Z,2.20
2023-02-19T11:56:51.295Z,2.10
2023-02-19T12:00:35.632Z,2.50
2023-02-19T12:04:35.690Z,2.90
2023-02-19T12:08:28.543Z,2.40
2023-02-19T12:11:58.964Z,2.00
2023-02-19T12:15:37.270Z,2.20
2023-02-19T12:19:07.502Z,2.10
2023-02-19T12:22:48.834Z,2.20
2023-02-19T12:26:36.772Z,2.60
2023-02-19T12:30:29.969Z,2.50
2023-02-19T12:34:06.027Z,2.80
2023-02-19T12:37:59.639Z,2.60
2023-02-19T12:41:36.427Z,2.60
2023-02-19T12:45:26.560Z,2.00
2023-02-19T12:48:59.721Z,2.30
2023-02-19T12:52:16.592Z,2.50
2023-02-19T12:55:41.322Z,1.80
2023-02-19T12:59:08.529Z,2.70
2023-02-19T13:02:50.535Z,1.90
2023-02-19T13:05:57.842Z,2.20
2023-02-19T13:09:31.105Z,2.00
2023-02-19T13:12:29.692Z,2.20
2023-02-19T13:15:40.823Z,1.60
2023-02-19T13:18:55.352Z,2.20
2023-02-19T13:22:22.401Z,1.90
2023-02-19T13:25:52.190Z,2.50
2023-02-19T13:29:08.594Z,1.90
2023-02-19T13:32:44.515Z,1.80
2023-02-19T13:36:19.697Z,1.80
2023-02-19T13:43:00.539Z,1.30
2023-02-19T13:46:23.008Z,1.60
2023-02-19T13:50:03.221Z,1.80
2023-02-19T13:53:36.135Z,2.00
2023-02-19T13:56:51.216Z,2.10
2023-02-19T13:59:39.654Z,1.90
2023-02-19T14:02:47.154Z,1.80
2023-02-19T14:06:10.773Z,1.40
2023-02-19T14:09:49.132Z,1.20
2023-02-19T14:12:58.909Z,1.40
2023-02-19T14:16:19.644Z,1.80
2023-02-19T14:20:21.683Z,1.80
2023-02-19T14:23:53.441Z,1.40
2023-02-19T14:27:34.727Z,1.60
2023-02-19T14:31:07.769Z,1.10
2023-02-19T14:34:29.512Z,1.40
2023-02-19T14:37:51.480Z,1.90
2023-02-19T14:41:32.655Z,2.40
2023-02-19T14:44:59.967Z,2.20
2023-02-19T14:48:45.952Z,2.00
2023-02-19T14:51:52.309Z,2.00
2023-02-19T14:55:12.086Z,1.70
2023-02-19T14:59:03.510Z,2.60
2023-02-19T15:02:30.039Z,1.80
2023-02-19T15:05:37.024Z,1.90
2023-02-19T15:09:24.272Z,1.40
2023-02-19T15:12:48.768Z,1.60
2023-02-19T15:16:26.213Z,1.50
2023-02-19T15:20:04.490Z,1.40
2023-02-19T15:23:36.276Z,1.20
2023-02-19T15:26:50.831Z,1.50
2023-02-19T15:29:41.946Z,1.10
2023-02-19T15:33:31.997Z,1.30
2023-02-19T15:37:17.360Z,1.60
2023-02-19T15:40:52.706Z,1.60
2023-02-19T15:44:19.862Z,1.90
2023-02-19T15:48:09.979Z,2.30
2023-02-19T15:51:08.865Z,2.30
2023-02-19T15:54:35.340Z,2.10
2023-02-19T15:58:13.960Z,2.60
2023-02-19T16:02:38.142Z,3.00
2023-02-19T16:06:04.825Z,2.80
2023-02-19T16:09:50.681Z,2.70
2023-02-19T16:13:21.019Z,2.70
2023-02-19T16:17:16.789Z,3.30
2023-02-19T16:21:02.731Z,2.80
2023-02-19T16:24:11.758Z,3.20
2023-02-19T16:27:42.159Z,3.00
2023-02-19T16:31:35.466Z,2.60
2023-02-19T16:35:24.339Z,2.20
2023-02-19T16:38:56.547Z,3.20
2023-02-19T16:42:35.505Z,2.40
2023-02-19T16:46:02.165Z,2.20
2023-02-19T16:49:20.174Z,2.10
2023-02-19T16:52:48.304Z,2.20
2023-02-19T16:55:53.449Z,2.70
2023-02-19T16:59:33.666Z,1.80
2023-02-19T17:03:21.034Z,2.00
2023-02-19T17:06:40.918Z,2.20
2023-02-19T17:10:18.502Z,2.20
2023-02-19T17:13:58.698Z,2.50
2023-02-19T17:17:46.049Z,2.10
2023-02-19T17:21:05.984Z,2.00
2023-02-19T17:24:25.919Z,2.10
2023-02-19T17:27:38.273Z,1.90
2023-02-19T17:31:00.279Z,1.90
2023-02-19T17:34:10.513Z,1.60
2023-02-19T17:37:05.795Z,2.00
2023-02-19T17:40:10.731Z,1.70
2023-02-19T17:43:21.502Z,2.10
2023-02-19T17:46:11.267Z,1.80
2023-02-19T17:49:13.508Z,1.80
2023-02-19T17:51:56.283Z,1.80
2023-02-19T17:55:13.486Z,1.70
2023-02-19T17:58:48.081Z,1.60
2023-02-19T18:02:05.314Z,1.60
2023-02-19T18:05:35.485Z,1.90
2023-02-19T18:09:05.095Z,1.80
2023-02-19T18:11:55.173Z,2.00
2023-02-19T18:15:04.914Z,2.00
2023-02-19T18:18:52.268Z,1.80
2023-02-19T18:22:09.335Z,1.80
2023-02-19T18:25:46.693Z,1.50
2023-02-19T18:29:13.841Z,1.70
2023-02-19T18:32:08.620Z,2.30
2023-02-19T18:35:26.493Z,2.50
2023-02-19T18:38:37.734Z,1.60
2023-02-19T18:42:08.155Z,2.00
2023-02-19T18:45:28.787Z,2.40
2023-02-19T18:49:16.256Z,2.00
2023-02-19T18:52:29.980Z,2.50
2023-02-19T18:56:00.312Z,1.70
2023-02-19T18:59:09.680Z,2.30
2023-02-19T19:02:14.520Z,2.00
2023-02-19T19:05:12.878Z,2.00
2023-02-19T19:08:19.957Z,2.20
2023-02-19T19:11:27.286Z,1.60
2023-02-19T19:14:28.268Z,2.10
2023-02-19T19:17:54.689Z,2.30
2023-02-19T19:21:12.957Z,2.20
2023-02-19T19:24:12.552Z,2.00
2023-02-19T19:27:28.478Z,1.60
2023-02-19T19:30:45.626Z,2.60
2023-02-19T19:33:52.729Z,2.60
2023-02-19T19:37:28.098Z,2.30
2023-02-19T19:40:48.540Z,2.30
2023-02-19T19:44:15.479Z,2.10
2023-02-19T19:47:32.762Z,2.50
2023-02-19T19:50:40.978Z,2.60
2023-02-19T19:53:59.204Z,2.00
2023-02-19T19:57:42.196Z,2.00
2023-02-19T20:01:11.275Z,2.10
2023-02-19T20:04:06.043Z,2.00
2023-02-19T20:07:33.310Z,1.90
2023-02-19T20:10:45.378Z,3.70
2023-02-19T20:14:10.776Z,2.10
2023-02-19T20:17:37.901Z,1.70
2023-02-19T20:21:10.743Z,2.70
2023-02-19T20:24:24.198Z,2.20
2023-02-19T20:27:42.662Z,3.00
2023-02-19T20:31:20.061Z,2.30
2023-02-19T20:34:24.517Z,1.90
2023-02-19T20:37:50.373Z,2.20
2023-02-19T20:41:20.383Z,1.90
2023-02-19T20:44:30.116Z,1.50
2023-02-19T20:47:36.928Z,2.00
2023-02-19T20:51:01.400Z,1.50
2023-02-19T20:54:08.661Z,2.20
2023-02-19T20:57:29.468Z,1.60
2023-02-19T21:00:29.661Z,1.80
2023-02-19T21:03:28.663Z,1.80
2023-02-19T21:06:21.688Z,1.60
2023-02-19T21:09:09.453Z,1.80
2023-02-19T21:12:31.622Z,2.00
2023-02-19T21:15:22.287Z,2.10
2023-02-19T21:18:25.713Z,2.00
2023-02-19T21:21:52.921Z,2.00
2023-02-19T21:24:55.448Z,1.80
2023-02-19T21:27:54.736Z,1.70
2023-02-19T21:31:42.163Z,1.90
2023-02-19T21:34:31.091Z,1.70
2023-02-19T21:37:42.958Z,2.00
2023-02-19T21:40:52.918Z,1.80
2023-02-19T21:43:43.805Z,2.00
2023-02-19T21:46:49.646Z,2.20
2023-02-19T21:50:08.306Z,2.60
2023-02-19T21:52:49.424Z,2.60
2023-02-19T21:55:30.486Z,2.50
2023-02-19T21:58:57.762Z,3.10
2023-02-19T22:01:53.755Z,3.30
2023-02-19T22:05:03.863Z,3.70
2023-02-19T22:08:16.540Z,3.00
2023-02-19T22:11:34.510Z,2.80
2023-02-19T22:14:36.411Z,3.30
2023-02-19T22:17:20.593Z,3.60
2023-02-19T22:20:30.319Z,3.40
2023-02-19T22:23:37.465Z,3.10
2023-02-19T22:26:44.906Z,3.10
2023-02-19T22:30:06.132Z,2.90
2023-02-19T22:32:55.389Z,3.20
2023-02-19T22:36:45.468Z,3.30
2023-02-19T22:39:37.417Z,3.10
2023-02-19T22:42:27.126Z,1.80
2023-02-19T22:45:56.765Z,2.50
2023-02-19T22:48:55.233Z,2.30
2023-02-19T22:51:27.011Z,2.30
2023-02-19T22:54:31.010Z,2.10
2023-02-19T22:57:43.181Z,2.00
2023-02-19T23:01:11.401Z,2.50
2023-02-19T23:04:33.937Z,2.10
2023-02-19T23:07:41.817Z,2.20
2023-02-19T23:11:19.109Z,2.30
2023-02-19T23:14:23.536Z,1.90
2023-02-19T23:17:43.534Z,2.20
2023-02-19T23:20:53.738Z,2.80
2023-02-19T23:23:53.355Z,2.80
2023-02-19T23:27:11.578Z,2.20
2023-02-19T23:30:38.193Z,2.70
2023-02-19T23:34:18.490Z,2.60
2023-02-19T23:37:19.487Z,2.50
2023-02-19T23:40:22.795Z,3.20
2023-02-19T23:43:48.684Z,2.60
2023-02-19T23:46:55.870Z,2.40
2023-02-19T23:50:01.847Z,2.50
2023-02-19T23:53:14.386Z,3.40
2023-02-19T23:56:54.689Z,2.60
